sensor_id;sensor_type;location;lat;lon;timestamp;P1;durP1;ratioP1;P2;durP2;ratioP2
28862;SDS011;15994;51.796;13.006;2023-03-04T00:02:02;36.78;;;20.90;;
28862;SDS011;15994;51.796;13.006;2023-03-04T00:04:29;36.92;;;20.35;;
28862;SDS011;15994;51.796;13.006;2023-03-04T00:06:56;35.55;;;19.60;;
28862;SDS011;15994;51.796;13.006;2023-03-04T00:09:22;38.25;;;20.40;;
28862;SDS011;15994;51.796;13.006;2023-03-04T00:11:49;37.53;;;19.70;;
28862;SDS011;15994;51.796;13.006;2023-03-04T00:14:15;35.33;;;20.92;;
28862;SDS011;15994;51.796;13.006;2023-03-04T00:16:42;36.67;;;19.77;;
28862;SDS011;15994;51.796;13.006;2023-03-04T00:19:09;36.15;;;20.17;;
28862;SDS011;15994;51.796;13.006;2023-03-04T00:21:36;34.67;;;19.98;;
28862;SDS011;15994;51.796;13.006;2023-03-04T00:24:02;36.08;;;20.00;;
28862;SDS011;15994;51.796;13.006;2023-03-04T00:26:29;38.75;;;20.75;;
28862;SDS011;15994;51.796;13.006;2023-03-04T00:28:56;38.75;;;21.20;;
28862;SDS011;15994;51.796;13.006;2023-03-04T00:31:22;36.45;;;20.40;;
28862;SDS011;15994;51.796;13.006;2023-03-04T00:33:49;43.63;;;21.95;;
28862;SDS011;15994;51.796;13.006;2023-03-04T00:36:15;38.33;;;21.20;;
28862;SDS011;15994;51.796;13.006;2023-03-04T00:38:42;34.83;;;21.15;;
28862;SDS011;15994;51.796;13.006;2023-03-04T00:41:08;37.83;;;21.70;;
28862;SDS011;15994;51.796;13.006;2023-03-04T00:43:35;38.60;;;21.85;;
28862;SDS011;15994;51.796;13.006;2023-03-04T00:46:01;36.33;;;21.98;;
28862;SDS011;15994;51.796;13.006;2023-03-04T00:48:28;35.35;;;19.98;;
28862;SDS011;15994;51.796;13.006;2023-03-04T00:50:54;35.95;;;20.15;;
28862;SDS011;15994;51.796;13.006;2023-03-04T00:53:21;30.70;;;19.15;;
28862;SDS011;15994;51.796;13.006;2023-03-04T00:55:48;35.45;;;19.55;;
28862;SDS011;15994;51.796;13.006;2023-03-04T00:58:15;32.10;;;19.27;;
28862;SDS011;15994;51.796;13.006;2023-03-04T01:00:42;35.72;;;18.05;;
28862;SDS011;15994;51.796;13.006;2023-03-04T01:03:08;33.58;;;18.95;;
28862;SDS011;15994;51.796;13.006;2023-03-04T01:05:35;35.53;;;20.10;;
28862;SDS011;15994;51.796;13.006;2023-03-04T01:08:02;33.55;;;18.85;;
28862;SDS011;15994;51.796;13.006;2023-03-04T01:10:29;31.83;;;18.70;;
28862;SDS011;15994;51.796;13.006;2023-03-04T01:12:56;33.47;;;19.67;;
28862;SDS011;15994;51.796;13.006;2023-03-04T01:15:22;33.60;;;21.20;;
28862;SDS011;15994;51.796;13.006;2023-03-04T01:17:49;36.45;;;21.13;;
28862;SDS011;15994;51.796;13.006;2023-03-04T01:20:15;34.03;;;20.90;;
28862;SDS011;15994;51.796;13.006;2023-03-04T01:22:42;34.42;;;20.48;;
28862;SDS011;15994;51.796;13.006;2023-03-04T01:25:09;34.30;;;22.00;;
28862;SDS011;15994;51.796;13.006;2023-03-04T01:27:35;35.58;;;22.75;;
28862;SDS011;15994;51.796;13.006;2023-03-04T01:30:02;35.03;;;21.65;;
28862;SDS011;15994;51.796;13.006;2023-03-04T01:32:29;35.95;;;22.13;;
28862;SDS011;15994;51.796;13.006;2023-03-04T01:34:56;37.80;;;22.58;;
28862;SDS011;15994;51.796;13.006;2023-03-04T01:37:22;37.67;;;22.60;;
28862;SDS011;15994;51.796;13.006;2023-03-04T01:39:49;38.22;;;22.30;;
28862;SDS011;15994;51.796;13.006;2023-03-04T01:42:17;38.00;;;22.83;;
28862;SDS011;15994;51.796;13.006;2023-03-04T01:44:48;38.42;;;21.42;;
28862;SDS011;15994;51.796;13.006;2023-03-04T01:47:16;35.28;;;21.38;;
28862;SDS011;15994;51.796;13.006;2023-03-04T01:49:43;38.55;;;22.83;;
28862;SDS011;15994;51.796;13.006;2023-03-04T01:52:13;38.25;;;22.02;;
28862;SDS011;15994;51.796;13.006;2023-03-04T01:54:40;41.15;;;22.25;;
28862;SDS011;15994;51.796;13.006;2023-03-04T01:57:14;35.78;;;21.48;;
28862;SDS011;15994;51.796;13.006;2023-03-04T01:59:45;34.38;;;20.35;;
28862;SDS011;15994;51.796;13.006;2023-03-04T02:02:12;34.63;;;20.15;;
28862;SDS011;15994;51.796;13.006;2023-03-04T02:04:40;35.28;;;19.00;;
28862;SDS011;15994;51.796;13.006;2023-03-04T02:07:07;30.10;;;18.63;;
28862;SDS011;15994;51.796;13.006;2023-03-04T02:09:34;30.48;;;18.90;;
28862;SDS011;15994;51.796;13.006;2023-03-04T02:12:01;30.70;;;17.77;;
28862;SDS011;15994;51.796;13.006;2023-03-04T02:14:27;33.13;;;18.25;;
28862;SDS011;15994;51.796;13.006;2023-03-04T02:16:54;34.13;;;19.15;;
28862;SDS011;15994;51.796;13.006;2023-03-04T02:22:26;32.72;;;17.60;;
28862;SDS011;15994;51.796;13.006;2023-03-04T02:24:57;31.52;;;16.83;;
28862;SDS011;15994;51.796;13.006;2023-03-04T02:27:28;32.88;;;17.00;;
28862;SDS011;15994;51.796;13.006;2023-03-04T02:29:54;32.40;;;16.52;;
28862;SDS011;15994;51.796;13.006;2023-03-04T02:32:21;32.30;;;16.52;;
28862;SDS011;15994;51.796;13.006;2023-03-04T02:34:48;32.30;;;16.73;;
28862;SDS011;15994;51.796;13.006;2023-03-04T02:37:16;29.13;;;16.70;;
28862;SDS011;15994;51.796;13.006;2023-03-04T02:39:45;31.40;;;15.73;;
28862;SDS011;15994;51.796;13.006;2023-03-04T02:42:14;30.92;;;15.77;;
28862;SDS011;15994;51.796;13.006;2023-03-04T02:44:42;35.03;;;16.50;;
28862;SDS011;15994;51.796;13.006;2023-03-04T02:47:12;31.85;;;17.35;;
28862;SDS011;15994;51.796;13.006;2023-03-04T02:49:41;28.15;;;16.33;;
28862;SDS011;15994;51.796;13.006;2023-03-04T02:52:09;29.75;;;16.15;;
28862;SDS011;15994;51.796;13.006;2023-03-04T02:54:44;35.28;;;15.63;;
28862;SDS011;15994;51.796;13.006;2023-03-04T02:57:11;34.35;;;16.80;;
28862;SDS011;15994;51.796;13.006;2023-03-04T02:59:39;24.15;;;15.05;;
28862;SDS011;15994;51.796;13.006;2023-03-04T03:02:06;28.38;;;14.63;;
28862;SDS011;15994;51.796;13.006;2023-03-04T03:04:34;36.03;;;16.75;;
28862;SDS011;15994;51.796;13.006;2023-03-04T03:07:02;32.45;;;15.02;;
28862;SDS011;15994;51.796;13.006;2023-03-04T03:09:29;26.90;;;14.88;;
28862;SDS011;15994;51.796;13.006;2023-03-04T03:11:56;32.70;;;14.45;;
28862;SDS011;15994;51.796;13.006;2023-03-04T03:14:22;33.70;;;15.45;;
28862;SDS011;15994;51.796;13.006;2023-03-04T03:16:49;27.52;;;14.35;;
28862;SDS011;15994;51.796;13.006;2023-03-04T03:19:15;30.70;;;15.30;;
28862;SDS011;15994;51.796;13.006;2023-03-04T03:21:42;30.40;;;14.45;;
28862;SDS011;15994;51.796;13.006;2023-03-04T03:24:08;27.27;;;13.93;;
28862;SDS011;15994;51.796;13.006;2023-03-04T03:26:35;29.98;;;14.15;;
28862;SDS011;15994;51.796;13.006;2023-03-04T03:29:03;26.33;;;13.25;;
28862;SDS011;15994;51.796;13.006;2023-03-04T03:31:30;29.17;;;14.40;;
28862;SDS011;15994;51.796;13.006;2023-03-04T03:33:56;28.13;;;14.02;;
28862;SDS011;15994;51.796;13.006;2023-03-04T03:36:23;29.55;;;13.82;;
28862;SDS011;15994;51.796;13.006;2023-03-04T03:38:50;30.35;;;13.63;;
28862;SDS011;15994;51.796;13.006;2023-03-04T03:41:16;26.13;;;12.93;;
28862;SDS011;15994;51.796;13.006;2023-03-04T03:43:43;29.50;;;13.30;;
28862;SDS011;15994;51.796;13.006;2023-03-04T03:46:09;29.60;;;13.60;;
28862;SDS011;15994;51.796;13.006;2023-03-04T03:48:36;28.92;;;12.93;;
28862;SDS011;15994;51.796;13.006;2023-03-04T03:51:02;31.35;;;13.02;;
28862;SDS011;15994;51.796;13.006;2023-03-04T03:53:29;30.83;;;13.20;;
28862;SDS011;15994;51.796;13.006;2023-03-04T03:55:55;31.90;;;12.27;;
28862;SDS011;15994;51.796;13.006;2023-03-04T03:58:22;33.35;;;12.32;;
28862;SDS011;15994;51.796;13.006;2023-03-04T04:00:50;31.95;;;12.82;;
28862;SDS011;15994;51.796;13.006;2023-03-04T04:03:17;27.98;;;12.43;;
28862;SDS011;15994;51.796;13.006;2023-03-04T04:05:44;30.02;;;11.93;;
28862;SDS011;15994;51.796;13.006;2023-03-04T04:08:14;26.15;;;11.70;;
28862;SDS011;15994;51.796;13.006;2023-03-04T04:10:42;26.48;;;11.02;;
28862;SDS011;15994;51.796;13.006;2023-03-04T04:13:09;28.38;;;11.43;;
28862;SDS011;15994;51.796;13.006;2023-03-04T04:15:36;25.85;;;11.20;;
28862;SDS011;15994;51.796;13.006;2023-03-04T04:18:04;25.05;;;10.38;;
28862;SDS011;15994;51.796;13.006;2023-03-04T04:20:31;30.33;;;10.32;;
28862;SDS011;15994;51.796;13.006;2023-03-04T04:22:57;22.70;;;9.88;;
28862;SDS011;15994;51.796;13.006;2023-03-04T04:25:24;23.63;;;10.18;;
28862;SDS011;15994;51.796;13.006;2023-03-04T04:27:51;27.90;;;10.25;;
28862;SDS011;15994;51.796;13.006;2023-03-04T04:30:17;28.77;;;9.73;;
28862;SDS011;15994;51.796;13.006;2023-03-04T04:32:44;27.98;;;9.70;;
28862;SDS011;15994;51.796;13.006;2023-03-04T04:35:10;27.60;;;10.05;;
28862;SDS011;15994;51.796;13.006;2023-03-04T04:37:37;27.15;;;9.38;;
28862;SDS011;15994;51.796;13.006;2023-03-04T04:40:04;31.00;;;10.43;;
28862;SDS011;15994;51.796;13.006;2023-03-04T04:42:31;31.33;;;10.25;;
28862;SDS011;15994;51.796;13.006;2023-03-04T04:44:58;24.95;;;9.75;;
28862;SDS011;15994;51.796;13.006;2023-03-04T04:47:24;28.10;;;9.50;;
28862;SDS011;15994;51.796;13.006;2023-03-04T04:49:51;23.20;;;8.50;;
28862;SDS011;15994;51.796;13.006;2023-03-04T04:52:17;25.90;;;10.00;;
28862;SDS011;15994;51.796;13.006;2023-03-04T04:54:44;25.95;;;9.68;;
28862;SDS011;15994;51.796;13.006;2023-03-04T04:57:10;26.77;;;9.48;;
28862;SDS011;15994;51.796;13.006;2023-03-04T04:59:37;27.40;;;9.38;;
28862;SDS011;15994;51.796;13.006;2023-03-04T05:02:03;23.90;;;9.40;;
28862;SDS011;15994;51.796;13.006;2023-03-04T05:04:30;25.65;;;9.43;;
28862;SDS011;15994;51.796;13.006;2023-03-04T05:06:56;26.90;;;9.55;;
28862;SDS011;15994;51.796;13.006;2023-03-04T05:09:23;30.17;;;9.35;;
28862;SDS011;15994;51.796;13.006;2023-03-04T05:11:49;20.60;;;8.57;;
28862;SDS011;15994;51.796;13.006;2023-03-04T05:14:16;21.30;;;8.52;;
28862;SDS011;15994;51.796;13.006;2023-03-04T05:16:43;27.23;;;9.00;;
28862;SDS011;15994;51.796;13.006;2023-03-04T05:19:09;23.92;;;8.52;;
28862;SDS011;15994;51.796;13.006;2023-03-04T05:21:36;26.15;;;8.73;;
28862;SDS011;15994;51.796;13.006;2023-03-04T05:24:02;25.95;;;9.00;;
28862;SDS011;15994;51.796;13.006;2023-03-04T05:26:29;21.73;;;8.00;;
28862;SDS011;15994;51.796;13.006;2023-03-04T05:28:55;26.88;;;8.57;;
28862;SDS011;15994;51.796;13.006;2023-03-04T05:31:22;21.10;;;8.25;;
28862;SDS011;15994;51.796;13.006;2023-03-04T05:33:49;27.05;;;8.60;;
28862;SDS011;15994;51.796;13.006;2023-03-04T05:36:15;25.33;;;8.75;;
28862;SDS011;15994;51.796;13.006;2023-03-04T05:38:42;28.20;;;8.05;;
28862;SDS011;15994;51.796;13.006;2023-03-04T05:41:08;27.85;;;8.27;;
28862;SDS011;15994;51.796;13.006;2023-03-04T05:43:35;26.02;;;7.82;;
28862;SDS011;15994;51.796;13.006;2023-03-04T05:46:06;22.73;;;8.05;;
28862;SDS011;15994;51.796;13.006;2023-03-04T05:48:33;25.05;;;7.68;;
28862;SDS011;15994;51.796;13.006;2023-03-04T05:51:00;22.67;;;7.95;;
28862;SDS011;15994;51.796;13.006;2023-03-04T05:53:27;23.27;;;7.57;;
28862;SDS011;15994;51.796;13.006;2023-03-04T05:55:54;19.58;;;7.68;;
28862;SDS011;15994;51.796;13.006;2023-03-04T05:58:21;23.55;;;7.68;;
28862;SDS011;15994;51.796;13.006;2023-03-04T06:00:47;23.30;;;6.80;;
28862;SDS011;15994;51.796;13.006;2023-03-04T06:03:15;19.40;;;7.38;;
28862;SDS011;15994;51.796;13.006;2023-03-04T06:05:47;20.05;;;6.97;;
28862;SDS011;15994;51.796;13.006;2023-03-04T06:08:14;22.42;;;6.90;;
28862;SDS011;15994;51.796;13.006;2023-03-04T06:10:40;27.48;;;7.30;;
28862;SDS011;15994;51.796;13.006;2023-03-04T06:13:08;22.55;;;6.05;;
28862;SDS011;15994;51.796;13.006;2023-03-04T06:15:35;21.75;;;6.63;;
28862;SDS011;15994;51.796;13.006;2023-03-04T06:18:02;21.10;;;6.72;;
28862;SDS011;15994;51.796;13.006;2023-03-04T06:20:29;22.98;;;6.75;;
28862;SDS011;15994;51.796;13.006;2023-03-04T06:22:55;20.80;;;6.10;;
28862;SDS011;15994;51.796;13.006;2023-03-04T06:25:22;19.20;;;5.75;;
28862;SDS011;15994;51.796;13.006;2023-03-04T06:27:49;21.52;;;6.03;;
28862;SDS011;15994;51.796;13.006;2023-03-04T06:30:16;22.42;;;6.13;;
28862;SDS011;15994;51.796;13.006;2023-03-04T06:32:43;16.52;;;5.57;;
28862;SDS011;15994;51.796;13.006;2023-03-04T06:35:11;18.30;;;5.68;;
28862;SDS011;15994;51.796;13.006;2023-03-04T06:37:39;21.98;;;6.40;;
28862;SDS011;15994;51.796;13.006;2023-03-04T06:40:06;24.02;;;6.13;;
28862;SDS011;15994;51.796;13.006;2023-03-04T06:42:33;18.27;;;5.45;;
28862;SDS011;15994;51.796;13.006;2023-03-04T06:45:01;25.85;;;6.43;;
28862;SDS011;15994;51.796;13.006;2023-03-04T06:47:28;20.17;;;6.03;;
28862;SDS011;15994;51.796;13.006;2023-03-04T06:49:55;18.17;;;5.53;;
28862;SDS011;15994;51.796;13.006;2023-03-04T06:52:22;25.58;;;6.28;;
28862;SDS011;15994;51.796;13.006;2023-03-04T06:54:48;24.75;;;6.15;;
28862;SDS011;15994;51.796;13.006;2023-03-04T06:57:15;21.30;;;5.50;;
28862;SDS011;15994;51.796;13.006;2023-03-04T06:59:41;21.20;;;6.07;;
28862;SDS011;15994;51.796;13.006;2023-03-04T07:02:10;21.85;;;5.55;;
28862;SDS011;15994;51.796;13.006;2023-03-04T07:04:37;21.95;;;6.13;;
28862;SDS011;15994;51.796;13.006;2023-03-04T07:07:04;20.13;;;6.53;;
28862;SDS011;15994;51.796;13.006;2023-03-04T07:09:31;15.45;;;5.43;;
28862;SDS011;15994;51.796;13.006;2023-03-04T07:11:57;19.92;;;6.00;;
28862;SDS011;15994;51.796;13.006;2023-03-04T07:14:24;21.95;;;5.70;;
28862;SDS011;15994;51.796;13.006;2023-03-04T07:16:51;19.38;;;5.88;;
28862;SDS011;15994;51.796;13.006;2023-03-04T07:19:18;18.70;;;5.60;;
28862;SDS011;15994;51.796;13.006;2023-03-04T07:21:44;21.95;;;5.97;;
28862;SDS011;15994;51.796;13.006;2023-03-04T07:24:12;19.15;;;5.82;;
28862;SDS011;15994;51.796;13.006;2023-03-04T07:26:39;21.65;;;5.97;;
28862;SDS011;15994;51.796;13.006;2023-03-04T07:29:05;17.63;;;5.45;;
28862;SDS011;15994;51.796;13.006;2023-03-04T07:31:33;20.05;;;5.47;;
28862;SDS011;15994;51.796;13.006;2023-03-04T07:34:02;18.40;;;5.57;;
28862;SDS011;15994;51.796;13.006;2023-03-04T07:36:30;20.17;;;6.20;;
28862;SDS011;15994;51.796;13.006;2023-03-04T07:38:58;20.88;;;6.00;;
28862;SDS011;15994;51.796;13.006;2023-03-04T07:41:25;19.75;;;6.18;;
28862;SDS011;15994;51.796;13.006;2023-03-04T07:43:54;21.20;;;6.45;;
28862;SDS011;15994;51.796;13.006;2023-03-04T07:46:24;18.02;;;5.88;;
28862;SDS011;15994;51.796;13.006;2023-03-04T07:48:51;22.55;;;6.40;;
28862;SDS011;15994;51.796;13.006;2023-03-04T07:51:18;15.15;;;5.85;;
28862;SDS011;15994;51.796;13.006;2023-03-04T07:53:47;16.52;;;5.63;;
28862;SDS011;15994;51.796;13.006;2023-03-04T07:56:18;16.23;;;5.95;;
28862;SDS011;15994;51.796;13.006;2023-03-04T07:58:46;19.00;;;5.50;;
28862;SDS011;15994;51.796;13.006;2023-03-04T08:01:14;17.73;;;5.25;;
28862;SDS011;15994;51.796;13.006;2023-03-04T08:03:43;16.50;;;5.95;;
28862;SDS011;15994;51.796;13.006;2023-03-04T08:06:11;19.65;;;5.70;;
28862;SDS011;15994;51.796;13.006;2023-03-04T08:08:39;14.80;;;6.05;;
28862;SDS011;15994;51.796;13.006;2023-03-04T08:11:08;15.25;;;5.88;;
28862;SDS011;15994;51.796;13.006;2023-03-04T08:13:36;19.75;;;5.97;;
28862;SDS011;15994;51.796;13.006;2023-03-04T08:16:03;16.75;;;5.95;;
28862;SDS011;15994;51.796;13.006;2023-03-04T08:18:30;18.33;;;6.32;;
28862;SDS011;15994;51.796;13.006;2023-03-04T08:20:56;14.05;;;5.57;;
28862;SDS011;15994;51.796;13.006;2023-03-04T08:23:23;16.80;;;6.32;;
28862;SDS011;15994;51.796;13.006;2023-03-04T08:25:49;14.45;;;5.63;;
28862;SDS011;15994;51.796;13.006;2023-03-04T08:28:17;19.25;;;6.45;;
28862;SDS011;15994;51.796;13.006;2023-03-04T08:30:43;16.73;;;6.28;;
28862;SDS011;15994;51.796;13.006;2023-03-04T08:33:10;15.25;;;6.20;;
28862;SDS011;15994;51.796;13.006;2023-03-04T08:35:37;11.73;;;5.35;;
28862;SDS011;15994;51.796;13.006;2023-03-04T08:38:05;17.55;;;5.90;;
28862;SDS011;15994;51.796;13.006;2023-03-04T08:40:32;14.40;;;5.90;;
28862;SDS011;15994;51.796;13.006;2023-03-04T08:42:58;15.13;;;6.15;;
28862;SDS011;15994;51.796;13.006;2023-03-04T08:45:25;13.10;;;5.45;;
28862;SDS011;15994;51.796;13.006;2023-03-04T08:47:51;18.48;;;5.53;;
28862;SDS011;15994;51.796;13.006;2023-03-04T08:50:18;23.05;;;5.43;;
28862;SDS011;15994;51.796;13.006;2023-03-04T08:52:45;16.05;;;5.28;;
28862;SDS011;15994;51.796;13.006;2023-03-04T08:55:12;14.63;;;5.47;;
28862;SDS011;15994;51.796;13.006;2023-03-04T08:57:38;15.48;;;5.22;;
28862;SDS011;15994;51.796;13.006;2023-03-04T09:00:05;12.18;;;5.00;;
28862;SDS011;15994;51.796;13.006;2023-03-04T09:02:32;12.95;;;4.95;;
28862;SDS011;15994;51.796;13.006;2023-03-04T09:04:59;11.13;;;4.35;;
28862;SDS011;15994;51.796;13.006;2023-03-04T09:07:25;11.52;;;4.63;;
28862;SDS011;15994;51.796;13.006;2023-03-04T09:09:52;14.57;;;4.75;;
28862;SDS011;15994;51.796;13.006;2023-03-04T09:12:18;12.40;;;4.55;;
28862;SDS011;15994;51.796;13.006;2023-03-04T09:14:45;13.68;;;5.18;;
28862;SDS011;15994;51.796;13.006;2023-03-04T09:17:11;11.50;;;4.47;;
28862;SDS011;15994;51.796;13.006;2023-03-04T09:19:38;11.40;;;4.72;;
28862;SDS011;15994;51.796;13.006;2023-03-04T09:22:04;14.30;;;5.53;;
28862;SDS011;15994;51.796;13.006;2023-03-04T09:24:31;9.10;;;4.30;;
28862;SDS011;15994;51.796;13.006;2023-03-04T09:26:57;13.63;;;4.90;;
28862;SDS011;15994;51.796;13.006;2023-03-04T09:29:24;12.43;;;5.00;;
28862;SDS011;15994;51.796;13.006;2023-03-04T09:31:50;13.75;;;4.78;;
28862;SDS011;15994;51.796;13.006;2023-03-04T09:34:17;15.02;;;5.40;;
28862;SDS011;15994;51.796;13.006;2023-03-04T09:36:43;10.05;;;4.97;;
28862;SDS011;15994;51.796;13.006;2023-03-04T09:39:10;15.55;;;5.35;;
28862;SDS011;15994;51.796;13.006;2023-03-04T09:41:45;12.75;;;5.40;;
28862;SDS011;15994;51.796;13.006;2023-03-04T09:46:40;11.68;;;4.63;;
28862;SDS011;15994;51.796;13.006;2023-03-04T09:49:09;13.65;;;4.93;;
28862;SDS011;15994;51.796;13.006;2023-03-04T09:51:43;9.68;;;4.85;;
28862;SDS011;15994;51.796;13.006;2023-03-04T09:54:31;9.30;;;4.38;;
28862;SDS011;15994;51.796;13.006;2023-03-04T09:59:57;9.63;;;4.45;;
28862;SDS011;15994;51.796;13.006;2023-03-04T10:05:30;12.30;;;6.00;;
28862;SDS011;15994;51.796;13.006;2023-03-04T10:08:08;15.73;;;5.57;;
28862;SDS011;15994;51.796;13.006;2023-03-04T10:10:55;11.10;;;5.05;;
28862;SDS011;15994;51.796;13.006;2023-03-04T10:13:32;10.63;;;5.10;;
28862;SDS011;15994;51.796;13.006;2023-03-04T10:16:05;8.15;;;4.43;;
28862;SDS011;15994;51.796;13.006;2023-03-04T10:18:37;11.65;;;4.70;;
28862;SDS011;15994;51.796;13.006;2023-03-04T10:24:11;8.18;;;4.70;;
28862;SDS011;15994;51.796;13.006;2023-03-04T10:26:46;8.70;;;4.53;;
28862;SDS011;15994;51.796;13.006;2023-03-04T10:29:18;10.30;;;4.43;;
28862;SDS011;15994;51.796;13.006;2023-03-04T10:31:46;10.68;;;4.78;;
28862;SDS011;15994;51.796;13.006;2023-03-04T10:34:14;9.55;;;4.32;;
28862;SDS011;15994;51.796;13.006;2023-03-04T10:37:01;10.48;;;3.60;;
28862;SDS011;15994;51.796;13.006;2023-03-04T10:39:32;9.82;;;3.65;;
28862;SDS011;15994;51.796;13.006;2023-03-04T10:44:30;9.25;;;2.80;;
28862;SDS011;15994;51.796;13.006;2023-03-04T10:46:58;4.78;;;2.03;;
28862;SDS011;15994;51.796;13.006;2023-03-04T10:49:26;4.72;;;2.17;;
28862;SDS011;15994;51.796;13.006;2023-03-04T10:52:01;4.03;;;1.63;;
28862;SDS011;15994;51.796;13.006;2023-03-04T10:57:53;2.72;;;1.20;;
28862;SDS011;15994;51.796;13.006;2023-03-04T10:59:55;4.05;;;1.45;;
28862;SDS011;15994;51.796;13.006;2023-03-04T11:02:32;3.25;;;1.38;;
28862;SDS011;15994;51.796;13.006;2023-03-04T11:05:05;3.83;;;0.90;;
28862;SDS011;15994;51.796;13.006;2023-03-04T11:07:45;2.88;;;0.98;;
28862;SDS011;15994;51.796;13.006;2023-03-04T11:10:21;5.03;;;1.60;;
28862;SDS011;15994;51.796;13.006;2023-03-04T11:13:11;3.08;;;1.50;;
28862;SDS011;15994;51.796;13.006;2023-03-04T11:21:00;6.82;;;2.67;;
28862;SDS011;15994;51.796;13.006;2023-03-04T11:26:15;5.20;;;2.80;;
28862;SDS011;15994;51.796;13.006;2023-03-04T11:37:31;4.35;;;2.75;;
28862;SDS011;15994;51.796;13.006;2023-03-04T11:45:15;4.30;;;2.92;;
28862;SDS011;15994;51.796;13.006;2023-03-04T11:47:49;5.40;;;2.45;;
28862;SDS011;15994;51.796;13.006;2023-03-04T11:55:45;4.82;;;1.90;;
28862;SDS011;15994;51.796;13.006;2023-03-04T12:01:07;4.65;;;1.80;;
28862;SDS011;15994;51.796;13.006;2023-03-04T12:03:43;4.72;;;1.67;;
28862;SDS011;15994;51.796;13.006;2023-03-04T12:09:46;5.10;;;1.40;;
28862;SDS011;15994;51.796;13.006;2023-03-04T12:17:55;7.35;;;2.17;;
28862;SDS011;15994;51.796;13.006;2023-03-04T12:23:13;8.25;;;2.05;;
28862;SDS011;15994;51.796;13.006;2023-03-04T12:28:36;7.53;;;1.50;;
28862;SDS011;15994;51.796;13.006;2023-03-04T12:34:34;10.90;;;1.85;;
28862;SDS011;15994;51.796;13.006;2023-03-04T12:43:07;10.38;;;2.33;;
28862;SDS011;15994;51.796;13.006;2023-03-04T12:45:46;12.48;;;2.47;;
28862;SDS011;15994;51.796;13.006;2023-03-04T12:48:34;9.88;;;2.13;;
28862;SDS011;15994;51.796;13.006;2023-03-04T13:01:41;13.10;;;2.53;;
28862;SDS011;15994;51.796;13.006;2023-03-04T13:04:22;12.52;;;2.20;;
28862;SDS011;15994;51.796;13.006;2023-03-04T13:07:20;7.70;;;1.70;;
28862;SDS011;15994;51.796;13.006;2023-03-04T13:10:06;11.15;;;2.20;;
28862;SDS011;15994;51.796;13.006;2023-03-04T13:12:44;11.23;;;2.22;;
28862;SDS011;15994;51.796;13.006;2023-03-04T13:18:00;10.25;;;2.20;;
28862;SDS011;15994;51.796;13.006;2023-03-04T13:20:47;13.60;;;2.53;;
28862;SDS011;15994;51.796;13.006;2023-03-04T13:23:30;11.18;;;2.42;;
28862;SDS011;15994;51.796;13.006;2023-03-04T13:28:25;11.75;;;2.38;;
28862;SDS011;15994;51.796;13.006;2023-03-04T13:51:29;16.83;;;2.78;;
28862;SDS011;15994;51.796;13.006;2023-03-04T13:56:41;17.65;;;2.60;;
28862;SDS011;15994;51.796;13.006;2023-03-04T13:59:12;19.45;;;3.30;;
28862;SDS011;15994;51.796;13.006;2023-03-04T14:01:59;16.98;;;3.03;;
28862;SDS011;15994;51.796;13.006;2023-03-04T14:04:39;15.68;;;3.20;;
28862;SDS011;15994;51.796;13.006;2023-03-04T14:09:54;16.13;;;2.70;;
28862;SDS011;15994;51.796;13.006;2023-03-04T14:12:30;14.13;;;2.60;;
28862;SDS011;15994;51.796;13.006;2023-03-04T14:15:00;16.08;;;3.05;;
28862;SDS011;15994;51.796;13.006;2023-03-04T14:17:31;11.85;;;2.30;;
28862;SDS011;15994;51.796;13.006;2023-03-04T14:20:02;15.63;;;2.50;;
28862;SDS011;15994;51.796;13.006;2023-03-04T14:22:31;14.35;;;2.60;;
28862;SDS011;15994;51.796;13.006;2023-03-04T14:25:03;12.40;;;2.33;;
28862;SDS011;15994;51.796;13.006;2023-03-04T14:27:33;13.70;;;2.88;;
28862;SDS011;15994;51.796;13.006;2023-03-04T14:30:03;15.60;;;3.28;;
28862;SDS011;15994;51.796;13.006;2023-03-04T14:32:32;17.08;;;2.60;;
28862;SDS011;15994;51.796;13.006;2023-03-04T14:35:03;11.20;;;2.35;;
28862;SDS011;15994;51.796;13.006;2023-03-04T14:37:35;13.25;;;2.53;;
28862;SDS011;15994;51.796;13.006;2023-03-04T14:40:28;13.13;;;2.80;;
28862;SDS011;15994;51.796;13.006;2023-03-04T14:43:00;15.40;;;2.65;;
28862;SDS011;15994;51.796;13.006;2023-03-04T14:45:33;18.55;;;3.42;;
28862;SDS011;15994;51.796;13.006;2023-03-04T14:48:01;15.73;;;2.63;;
28862;SDS011;15994;51.796;13.006;2023-03-04T14:50:31;18.05;;;2.63;;
28862;SDS011;15994;51.796;13.006;2023-03-04T14:55:33;14.77;;;2.53;;
28862;SDS011;15994;51.796;13.006;2023-03-04T14:58:07;12.13;;;2.60;;
28862;SDS011;15994;51.796;13.006;2023-03-04T15:00:48;13.40;;;2.50;;
28862;SDS011;15994;51.796;13.006;2023-03-04T15:03:27;14.98;;;2.75;;
28862;SDS011;15994;51.796;13.006;2023-03-04T15:05:55;15.43;;;2.53;;
28862;SDS011;15994;51.796;13.006;2023-03-04T15:11:03;15.85;;;2.50;;
28862;SDS011;15994;51.796;13.006;2023-03-04T15:13:45;13.93;;;3.13;;
28862;SDS011;15994;51.796;13.006;2023-03-04T15:16:13;16.70;;;3.55;;
28862;SDS011;15994;51.796;13.006;2023-03-04T15:18:55;12.07;;;2.92;;
28862;SDS011;15994;51.796;13.006;2023-03-04T15:21:28;12.93;;;2.53;;
28862;SDS011;15994;51.796;13.006;2023-03-04T15:23:56;12.00;;;2.13;;
28862;SDS011;15994;51.796;13.006;2023-03-04T15:26:23;10.60;;;1.92;;
28862;SDS011;15994;51.796;13.006;2023-03-04T15:28:51;9.93;;;2.10;;
28862;SDS011;15994;51.796;13.006;2023-03-04T15:31:18;9.60;;;2.13;;
28862;SDS011;15994;51.796;13.006;2023-03-04T15:33:46;8.57;;;1.80;;
28862;SDS011;15994;51.796;13.006;2023-03-04T15:36:14;11.70;;;2.65;;
28862;SDS011;15994;51.796;13.006;2023-03-04T15:38:45;12.50;;;2.47;;
28862;SDS011;15994;51.796;13.006;2023-03-04T15:41:14;10.13;;;2.13;;
28862;SDS011;15994;51.796;13.006;2023-03-04T15:43:47;11.18;;;2.60;;
28862;SDS011;15994;51.796;13.006;2023-03-04T15:46:14;11.32;;;2.10;;
28862;SDS011;15994;51.796;13.006;2023-03-04T15:48:41;12.60;;;2.15;;
28862;SDS011;15994;51.796;13.006;2023-03-04T15:51:10;11.30;;;2.08;;
28862;SDS011;15994;51.796;13.006;2023-03-04T15:53:41;14.90;;;2.20;;
28862;SDS011;15994;51.796;13.006;2023-03-04T15:56:19;9.75;;;2.65;;
28862;SDS011;15994;51.796;13.006;2023-03-04T15:58:53;13.10;;;2.50;;
28862;SDS011;15994;51.796;13.006;2023-03-04T16:01:24;12.27;;;3.20;;
28862;SDS011;15994;51.796;13.006;2023-03-04T16:03:51;14.57;;;2.13;;
28862;SDS011;15994;51.796;13.006;2023-03-04T16:06:18;11.75;;;2.55;;
28862;SDS011;15994;51.796;13.006;2023-03-04T16:08:47;17.33;;;2.42;;
28862;SDS011;15994;51.796;13.006;2023-03-04T16:11:17;15.10;;;2.50;;
28862;SDS011;15994;51.796;13.006;2023-03-04T16:13:48;12.73;;;2.40;;
28862;SDS011;15994;51.796;13.006;2023-03-04T16:16:15;12.40;;;2.42;;
28862;SDS011;15994;51.796;13.006;2023-03-04T16:18:42;15.80;;;3.00;;
28862;SDS011;15994;51.796;13.006;2023-03-04T16:21:10;16.52;;;2.75;;
28862;SDS011;15994;51.796;13.006;2023-03-04T16:23:41;12.13;;;2.50;;
28862;SDS011;15994;51.796;13.006;2023-03-04T16:26:13;18.30;;;3.50;;
28862;SDS011;15994;51.796;13.006;2023-03-04T16:28:43;15.13;;;3.15;;
28862;SDS011;15994;51.796;13.006;2023-03-04T16:31:10;13.73;;;2.55;;